Time;durP1;ratioP1;P1;durP2;ratioP2;P2;SDS_P1;SDS_P2;PMS_P1;PMS_P2;Temp;Humidity;BMP_temperature;BMP_pressure;BME280_temperature;BME280_humidity;BME280_pressure;Samples;Min_cycle;Max_cycle;Signal;HPM_P1;HPM_P2
2023/01/24 00:00:17;;;;;;;15.63;12.55;;;;;;;;;;5197479;28;20019;-77
2023/01/24 00:02:48;;;;;;;13.98;12.48;;;;;;;;;;5196699;28;20058;-77
2023/01/24 00:05:19;;;;;;;14.45;12.75;;;;;;;;;;5197723;28;20094;-77
2023/01/24 00:07:51;;;;;;;15.32;12.60;;;;;;;;;;5197834;28;20022;-78
2023/01/24 00:10:22;;;;;;;14.93;13.00;;;;;;;;;;5196726;28;20019;-78
2023/01/24 00:12:53;;;;;;;14.18;12.40;;;;;;;;;;5197330;28;20071;-77
2023/01/24 00:15:24;;;;;;;14.40;12.60;;;;;;;;;;5196860;28;20026;-77
2023/01/24 00:17:55;;;;;;;16.80;13.25;;;;;;;;;;5196894;28;20026;-77
2023/01/24 00:20:27;;;;;;;14.60;12.43;;;;;;;;;;5196999;28;20022;-76
2023/01/24 00:22:58;;;;;;;12.68;11.38;;;;;;;;;;5196856;28;20030;-77
2023/01/24 00:25:29;;;;;;;13.80;11.93;;;;;;;;;;5196833;28;20029;-77
2023/01/24 00:28:00;;;;;;;15.05;12.20;;;;;;;;;;5197213;28;20034;-77
2023/01/24 00:30:31;;;;;;;14.70;12.38;;;;;;;;;;5196351;28;20025;-77
2023/01/24 00:33:02;;;;;;;13.35;11.95;;;;;;;;;;5196979;28;20076;-77
2023/01/24 00:35:34;;;;;;;14.35;12.02;;;;;;;;;;5196898;28;20022;-77
2023/01/24 00:38:06;;;;;;;13.48;11.75;;;;;;;;;;5196091;28;20539;-77
2023/01/24 00:40:37;;;;;;;14.13;12.13;;;;;;;;;;5197027;28;20025;-78
2023/01/24 00:43:08;;;;;;;15.38;12.90;;;;;;;;;;5196434;28;20034;-77
2023/01/24 00:45:40;;;;;;;13.18;11.77;;;;;;;;;;5195997;28;20056;-77
2023/01/24 00:48:11;;;;;;;15.18;12.45;;;;;;;;;;5196597;28;20528;-77
2023/01/24 00:50:42;;;;;;;13.85;12.02;;;;;;;;;;5196197;28;20122;-78
2023/01/24 00:53:13;;;;;;;18.23;13.60;;;;;;;;;;5196960;28;20083;-77
2023/01/24 00:55:45;;;;;;;15.35;13.32;;;;;;;;;;5196865;28;20030;-78
2023/01/24 00:58:16;;;;;;;16.23;12.88;;;;;;;;;;5195957;28;20112;-77
2023/01/24 01:00:48;;;;;;;14.48;12.23;;;;;;;;;;5196707;28;20019;-77
2023/01/24 01:03:19;;;;;;;14.57;12.32;;;;;;;;;;5196484;28;20061;-77
2023/01/24 01:05:56;;;;;;;13.32;11.32;;;;;;;;;;5195738;28;20026;-77
2023/01/24 01:08:27;;;;;;;15.55;13.10;;;;;;;;;;5196184;28;20031;-78
2023/01/24 01:10:59;;;;;;;12.52;10.98;;;;;;;;;;5196813;28;20377;-77
2023/01/24 01:13:30;;;;;;;14.40;12.30;;;;;;;;;;5195735;28;20014;-78
2023/01/24 01:16:10;;;;;;;14.55;12.55;;;;;;;;;;5196574;28;20061;-77
2023/01/24 01:18:41;;;;;;;16.17;11.75;;;;;;;;;;5196361;28;20026;-77
2023/01/24 01:21:13;;;;;;;13.70;11.50;;;;;;;;;;5195607;28;20056;-78
2023/01/24 01:23:44;;;;;;;15.95;11.43;;;;;;;;;;5196095;28;20042;-78
2023/01/24 01:26:17;;;;;;;13.57;11.60;;;;;;;;;;5195872;28;20489;-78
2023/01/24 01:28:49;;;;;;;14.23;11.68;;;;;;;;;;5196243;28;20033;-77
2023/01/24 01:31:20;;;;;;;12.00;10.65;;;;;;;;;;5196207;28;20022;-78
2023/01/24 01:33:51;;;;;;;12.23;10.40;;;;;;;;;;5195318;28;20033;-77
2023/01/24 01:36:22;;;;;;;11.52;10.18;;;;;;;;;;5196114;28;20048;-78
2023/01/24 01:38:53;;;;;;;13.38;11.13;;;;;;;;;;5196093;28;20018;-78
2023/01/24 01:41:24;;;;;;;11.95;10.07;;;;;;;;;;5195035;28;20484;-78
2023/01/24 01:46:47;;;;;;;12.88;10.00;;;;;;;;;;5196393;28;20034;-78
2023/01/24 01:49:26;;;;;;;12.63;10.32;;;;;;;;;;5195397;28;20442;-76
2023/01/24 01:52:05;;;;;;;11.25;8.93;;;;;;;;;;5196317;28;20117;-77
2023/01/24 01:54:40;;;;;;;11.90;10.40;;;;;;;;;;5197016;28;20072;-77
2023/01/24 01:57:13;;;;;;;12.77;11.35;;;;;;;;;;5199381;28;20030;-77
2023/01/24 01:59:51;;;;;;;14.23;11.82;;;;;;;;;;5199475;28;20056;-78
2023/01/24 02:02:23;;;;;;;14.88;11.93;;;;;;;;;;5198115;28;20497;-77
2023/01/24 02:04:58;;;;;;;14.57;12.25;;;;;;;;;;5198212;28;20076;-77
2023/01/24 02:07:59;;;;;;;13.63;11.05;;;;;;;;;;5197544;28;20022;-78
2023/01/24 02:11:37;;;;;;;13.50;10.90;;;;;;;;;;5201158;28;20034;-77
2023/01/24 02:13:21;;;;;;;13.07;11.07;;;;;;;;;;5197917;28;20034;-77
2023/01/24 02:16:02;;;;;;;13.05;11.00;;;;;;;;;;5197075;28;20064;-77
2023/01/24 02:18:34;;;;;;;13.57;11.40;;;;;;;;;;5197757;28;20030;-77
2023/01/24 02:21:10;;;;;;;13.48;11.45;;;;;;;;;;5197803;28;20014;-77
2023/01/24 02:23:44;;;;;;;14.73;11.50;;;;;;;;;;5197019;28;20042;-77
2023/01/24 02:26:17;;;;;;;14.45;12.18;;;;;;;;;;5197751;28;20022;-77
2023/01/24 02:28:55;;;;;;;13.13;11.40;;;;;;;;;;5197730;28;20075;-77
2023/01/24 02:31:27;;;;;;;13.82;11.60;;;;;;;;;;5196439;28;20026;-77
2023/01/24 02:33:58;;;;;;;15.75;13.02;;;;;;;;;;5197937;28;20350;-78
2023/01/24 02:36:34;;;;;;;16.38;13.00;;;;;;;;;;5196490;28;20485;-78
2023/01/24 02:39:09;;;;;;;15.68;13.00;;;;;;;;;;5197595;28;20030;-78
2023/01/24 02:41:49;;;;;;;18.95;14.77;;;;;;;;;;5197841;28;20019;-78
2023/01/24 02:44:28;;;;;;;15.48;13.05;;;;;;;;;;5196671;28;20019;-77
2023/01/24 02:46:59;;;;;;;14.73;12.07;;;;;;;;;;5197510;28;20079;-77
2023/01/24 02:49:30;;;;;;;16.55;14.00;;;;;;;;;;5197663;28;20442;-77
2023/01/24 02:54:51;;;;;;;16.33;13.23;;;;;;;;;;5197639;28;20027;-77
2023/01/24 03:00:12;;;;;;;17.10;13.40;;;;;;;;;;5197627;28;20473;-77
2023/01/24 03:02:43;;;;;;;17.10;13.55;;;;;;;;;;5161398;28;1061845;-77
2023/01/24 03:05:14;;;;;;;16.27;13.48;;;;;;;;;;5197343;28;20037;-77
2023/01/24 03:07:45;;;;;;;16.33;13.45;;;;;;;;;;5198430;28;20046;-77
2023/01/24 03:10:18;;;;;;;20.13;14.20;;;;;;;;;;5198674;28;20101;-77
2023/01/24 03:35:28;;;;;;;15.02;12.40;;;;;;;;;;5197954;28;20030;-78
2023/01/24 03:40:52;;;;;;;15.57;12.43;;;;;;;;;;5197357;28;20026;-78
2023/01/24 03:43:23;;;;;;;15.75;12.63;;;;;;;;;;5198120;28;20139;-78
2023/01/24 03:45:55;;;;;;;13.23;11.23;;;;;;;;;;5198165;28;20014;-78
2023/01/24 03:48:34;;;;;;;15.75;12.52;;;;;;;;;;5197060;28;20105;-78
2023/01/24 03:53:55;;;;;;;18.80;14.52;;;;;;;;;;5197251;28;19956;-78
2023/01/24 03:56:26;;;;;;;16.95;13.38;;;;;;;;;;5197231;28;20054;-78
2023/01/24 03:58:57;;;;;;;17.13;13.80;;;;;;;;;;5198000;28;20041;-78
2023/01/24 04:01:29;;;;;;;17.08;13.05;;;;;;;;;;5196570;28;20030;-77
2023/01/24 04:04:00;;;;;;;14.73;12.23;;;;;;;;;;5197408;28;20393;-78
2023/01/24 04:06:31;;;;;;;17.25;13.02;;;;;;;;;;5197372;28;20021;-78
2023/01/24 04:09:03;;;;;;;17.08;13.25;;;;;;;;;;5196708;28;20029;-78
2023/01/24 04:11:34;;;;;;;17.27;13.50;;;;;;;;;;5197636;28;20034;-78
2023/01/24 04:14:05;;;;;;;15.52;12.95;;;;;;;;;;5197585;28;20105;-78
2023/01/24 04:16:36;;;;;;;15.45;13.45;;;;;;;;;;5195693;28;20037;-78
2023/01/24 04:19:07;;;;;;;18.27;14.57;;;;;;;;;;5197888;28;20022;-78
2023/01/24 04:21:39;;;;;;;16.90;13.27;;;;;;;;;;5197080;28;20027;-78
2023/01/24 04:24:10;;;;;;;17.83;13.70;;;;;;;;;;5197026;28;20021;-78
2023/01/24 04:26:41;;;;;;;15.85;12.57;;;;;;;;;;5197175;28;20026;-78
2023/01/24 04:29:12;;;;;;;16.75;13.13;;;;;;;;;;5196540;28;20484;-78
2023/01/24 04:31:43;;;;;;;17.08;13.45;;;;;;;;;;5197395;28;20370;-78
2023/01/24 04:34:14;;;;;;;16.90;13.30;;;;;;;;;;5197418;28;20026;-78
2023/01/24 04:36:46;;;;;;;18.90;13.60;;;;;;;;;;5196366;28;20120;-78
2023/01/24 04:39:17;;;;;;;17.00;13.30;;;;;;;;;;5197362;28;20019;-78
2023/01/24 04:41:48;;;;;;;18.50;13.90;;;;;;;;;;5197219;28;20101;-78
2023/01/24 04:44:19;;;;;;;17.27;14.18;;;;;;;;;;5196530;28;20022;-78
2023/01/24 04:46:50;;;;;;;18.83;14.07;;;;;;;;;;5196903;28;20031;-78
2023/01/24 04:49:21;;;;;;;16.83;13.70;;;;;;;;;;5196971;28;20446;-77
2023/01/24 04:51:53;;;;;;;15.68;12.30;;;;;;;;;;5195987;28;20049;-78
2023/01/24 04:54:24;;;;;;;14.82;12.15;;;;;;;;;;5196595;28;20030;-78
2023/01/24 04:56:55;;;;;;;15.10;12.35;;;;;;;;;;5196308;28;20026;-78
2023/01/24 04:59:26;;;;;;;19.30;14.52;;;;;;;;;;5196465;28;20412;-78
2023/01/24 05:01:57;;;;;;;17.55;13.77;;;;;;;;;;5196860;28;20050;-78
2023/01/24 05:04:29;;;;;;;16.88;13.05;;;;;;;;;;5195498;28;20030;-78
2023/01/24 05:07:00;;;;;;;16.33;13.35;;;;;;;;;;5196736;28;20129;-78
2023/01/24 05:09:31;;;;;;;17.17;14.48;;;;;;;;;;5196656;28;20098;-79
2023/01/24 05:12:02;;;;;;;15.15;12.82;;;;;;;;;;5196057;28;20041;-78
2023/01/24 05:14:33;;;;;;;17.98;15.27;;;;;;;;;;5196386;28;20026;-78
2023/01/24 05:17:05;;;;;;;17.50;13.95;;;;;;;;;;5196206;28;20030;-78
2023/01/24 05:19:36;;;;;;;16.95;14.05;;;;;;;;;;5195771;28;20109;-78
2023/01/24 05:22:07;;;;;;;17.50;14.20;;;;;;;;;;5196417;28;20030;-78
2023/01/24 05:24:38;;;;;;;16.95;13.20;;;;;;;;;;5196151;28;20017;-77
2023/01/24 05:27:09;;;;;;;16.23;13.48;;;;;;;;;;5195455;28;20018;-77
2023/01/24 05:29:40;;;;;;;15.20;13.43;;;;;;;;;;5196080;28;20478;-78
2023/01/24 05:32:12;;;;;;;16.05;14.35;;;;;;;;;;5195533;28;20199;-78
2023/01/24 05:34:43;;;;;;;15.27;12.75;;;;;;;;;;5196158;28;20057;-78
2023/01/24 05:37:14;;;;;;;16.65;13.20;;;;;;;;;;5195972;28;20045;-77
2023/01/24 05:39:45;;;;;;;17.08;12.70;;;;;;;;;;5195254;28;20011;-77
2023/01/24 05:42:17;;;;;;;16.60;13.80;;;;;;;;;;5196229;28;20027;-78
2023/01/24 05:44:48;;;;;;;17.33;13.57;;;;;;;;;;5196206;28;20022;-78
2023/01/24 05:47:19;;;;;;;14.82;12.75;;;;;;;;;;5195204;28;20030;-78
2023/01/24 05:49:50;;;;;;;15.90;13.18;;;;;;;;;;5196059;28;20030;-78
2023/01/24 05:52:21;;;;;;;18.52;13.95;;;;;;;;;;5195710;28;20042;-78
2023/01/24 05:54:53;;;;;;;15.65;12.70;;;;;;;;;;5195581;28;20122;-78
2023/01/24 05:57:24;;;;;;;17.67;13.40;;;;;;;;;;5195438;28;20038;-78
2023/01/24 05:59:55;;;;;;;16.13;12.75;;;;;;;;;;5196235;28;20373;-78
2023/01/24 06:02:26;;;;;;;16.17;12.93;;;;;;;;;;5194513;28;20050;-78
2023/01/24 06:04:58;;;;;;;16.20;14.13;;;;;;;;;;5195872;28;20030;-77
2023/01/24 06:07:29;;;;;;;15.48;12.82;;;;;;;;;;5194801;28;20031;-77
2023/01/24 06:10:00;;;;;;;16.07;12.60;;;;;;;;;;5195865;28;20019;-78
2023/01/24 06:12:31;;;;;;;14.48;11.77;;;;;;;;;;5195785;28;20021;-78
2023/01/24 06:15:03;;;;;;;15.73;12.85;;;;;;;;;;5195084;28;20500;-78
2023/01/24 06:17:34;;;;;;;14.27;12.17;;;;;;;;;;5195745;28;20030;-78
2023/01/24 06:20:06;;;;;;;13.35;10.68;;;;;;;;;;5195749;28;20026;-77
2023/01/24 06:22:43;;;;;;;16.55;12.50;;;;;;;;;;5194753;28;20030;-78
2023/01/24 06:25:18;;;;;;;14.60;12.18;;;;;;;;;;5195627;28;20034;-78
2023/01/24 06:27:50;;;;;;;15.70;13.57;;;;;;;;;;5195467;28;20026;-78
2023/01/24 06:30:21;;;;;;;14.35;12.52;;;;;;;;;;5194794;28;20033;-77
2023/01/24 06:32:52;;;;;;;15.35;12.18;;;;;;;;;;5195518;28;20087;-78
2023/01/24 06:35:28;;;;;;;15.77;12.55;;;;;;;;;;5194576;28;20038;-78
2023/01/24 06:37:59;;;;;;;16.13;13.50;;;;;;;;;;5195172;28;20058;-78
2023/01/24 06:40:31;;;;;;;14.68;12.13;;;;;;;;;;5196729;28;20077;-78
2023/01/24 06:43:02;;;;;;;16.00;14.02;;;;;;;;;;5198390;28;20033;-78
2023/01/24 06:45:33;;;;;;;15.05;12.73;;;;;;;;;;5198850;28;20018;-78
2023/01/24 06:48:04;;;;;;;14.73;12.75;;;;;;;;;;5199188;28;20030;-78
2023/01/24 06:50:36;;;;;;;15.43;12.75;;;;;;;;;;5198422;28;20019;-78
2023/01/24 06:53:07;;;;;;;15.80;13.00;;;;;;;;;;5199009;28;20353;-78
2023/01/24 06:55:39;;;;;;;16.60;14.07;;;;;;;;;;5198666;28;20026;-78
2023/01/24 06:58:10;;;;;;;18.07;14.97;;;;;;;;;;5197945;28;20109;-78
2023/01/24 07:00:41;;;;;;;16.23;12.85;;;;;;;;;;5198615;28;20022;-78
2023/01/24 07:03:12;;;;;;;17.93;14.23;;;;;;;;;;5198177;28;20054;-78
2023/01/24 07:05:44;;;;;;;16.52;13.45;;;;;;;;;;5197739;28;20026;-78
2023/01/24 07:08:17;;;;;;;15.33;12.83;;;;;;;;;;5198579;28;20102;-79
2023/01/24 07:10:48;;;;;;;14.27;11.80;;;;;;;;;;5197443;28;20049;-78
2023/01/24 07:13:19;;;;;;;14.67;12.13;;;;;;;;;;5198337;28;20027;-78
2023/01/24 07:15:50;;;;;;;16.23;13.37;;;;;;;;;;5198149;28;20557;-78
2023/01/24 07:18:22;;;;;;;16.92;13.35;;;;;;;;;;5197764;28;20059;-78
2023/01/24 07:20:53;;;;;;;16.10;12.98;;;;;;;;;;5198307;28;20022;-79
2023/01/24 07:23:27;;;;;;;16.73;13.53;;;;;;;;;;5198182;28;20018;-79
2023/01/24 07:25:59;;;;;;;16.98;14.25;;;;;;;;;;5197702;28;20022;-78
2023/01/24 07:28:30;;;;;;;26.02;19.60;;;;;;;;;;5198327;28;20026;-79
2023/01/24 07:31:01;;;;;;;18.20;14.50;;;;;;;;;;5198354;28;20033;-79
2023/01/24 07:33:33;;;;;;;15.73;13.27;;;;;;;;;;5197325;28;20015;-79
2023/01/24 07:36:14;;;;;;;17.95;14.85;;;;;;;;;;5197881;28;20416;-79
2023/01/24 07:38:45;;;;;;;17.20;13.27;;;;;;;;;;5196931;28;20029;-78
2023/01/24 07:41:16;;;;;;;14.85;11.18;;;;;;;;;;5197667;28;20023;-78
2023/01/24 07:43:47;;;;;;;22.57;14.60;;;;;;;;;;5197423;28;20160;-79
2023/01/24 07:46:19;;;;;;;17.10;12.57;;;;;;;;;;5197355;28;20477;-79
2023/01/24 07:48:50;;;;;;;19.47;15.07;;;;;;;;;;5197564;28;20022;-79
2023/01/24 07:51:21;;;;;;;18.23;13.80;;;;;;;;;;5196342;28;20045;-78
2023/01/24 07:53:53;;;;;;;16.80;13.23;;;;;;;;;;5196954;28;20034;-78
2023/01/24 07:56:24;;;;;;;16.80;13.30;;;;;;;;;;5197646;28;20077;-79
2023/01/24 07:58:56;;;;;;;16.45;12.85;;;;;;;;;;5198003;28;20027;-80
2023/01/24 08:01:27;;;;;;;15.45;12.38;;;;;;;;;;5196335;28;20061;-80
2023/01/24 08:03:58;;;;;;;17.63;13.70;;;;;;;;;;5197984;28;20490;-80
2023/01/24 08:06:30;;;;;;;19.23;13.80;;;;;;;;;;5197842;28;20022;-82
2023/01/24 08:09:01;;;;;;;18.50;14.33;;;;;;;;;;5197298;28;20023;-82
2023/01/24 08:11:33;;;;;;;17.23;13.30;;;;;;;;;;5197560;28;20094;-80
2023/01/24 08:14:04;;;;;;;16.27;13.35;;;;;;;;;;5196679;28;20207;-80
2023/01/24 08:16:35;;;;;;;16.00;13.60;;;;;;;;;;5197491;28;20476;-81
2023/01/24 08:19:06;;;;;;;16.83;13.63;;;;;;;;;;5197480;28;20033;-80
2023/01/24 08:21:37;;;;;;;20.27;15.82;;;;;;;;;;5196606;28;20465;-80
2023/01/24 08:24:09;;;;;;;17.50;13.70;;;;;;;;;;5197489;28;20475;-80
2023/01/24 08:26:40;;;;;;;17.77;13.83;;;;;;;;;;5197201;28;20022;-81
2023/01/24 08:29:11;;;;;;;19.35;14.60;;;;;;;;;;5196530;28;20101;-80
2023/01/24 08:31:43;;;;;;;18.48;15.50;;;;;;;;;;5197215;28;20037;-81
2023/01/24 08:34:14;;;;;;;17.03;13.60;;;;;;;;;;5197322;28;20392;-81
2023/01/24 08:36:45;;;;;;;20.47;14.37;;;;;;;;;;5196097;28;20034;-81
2023/01/24 08:39:17;;;;;;;16.83;13.63;;;;;;;;;;5197154;28;20369;-81
2023/01/24 08:41:48;;;;;;;19.93;14.93;;;;;;;;;;5189806;28;20023;-80
2023/01/24 08:44:19;;;;;;;17.27;13.23;;;;;;;;;;5195421;28;20022;-80
2023/01/24 08:46:50;;;;;;;18.83;13.60;;;;;;;;;;5196746;28;20022;-80
2023/01/24 08:49:21;;;;;;;17.80;14.90;;;;;;;;;;5196165;28;20028;-80
2023/01/24 08:51:58;;;;;;;18.63;13.60;;;;;;;;;;5196795;28;20030;-79
2023/01/24 08:54:32;;;;;;;17.23;13.20;;;;;;;;;;5195872;28;20019;-80
2023/01/24 08:57:04;;;;;;;16.70;12.75;;;;;;;;;;5194945;28;20045;-80
2023/01/24 08:59:35;;;;;;;17.03;13.90;;;;;;;;;;5196148;28;20023;-80
2023/01/24 09:02:06;;;;;;;19.47;15.07;;;;;;;;;;5196346;28;20450;-80
2023/01/24 09:04:37;;;;;;;17.83;13.20;;;;;;;;;;5195808;28;20030;-81
2023/01/24 09:07:10;;;;;;;17.27;13.33;;;;;;;;;;5196750;28;20416;-79
2023/01/24 09:09:41;;;;;;;16.23;13.27;;;;;;;;;;5196666;28;20015;-77
2023/01/24 09:12:12;;;;;;;17.03;12.63;;;;;;;;;;5195642;28;20023;-76
2023/01/24 09:14:43;;;;;;;15.67;12.80;;;;;;;;;;5196453;28;20355;-78
2023/01/24 09:17:14;;;;;;;19.07;14.57;;;;;;;;;;5196000;28;20073;-77
2023/01/24 09:19:46;;;;;;;16.23;12.70;;;;;;;;;;5196657;28;20034;-79
2023/01/24 09:22:17;;;;;;;17.27;13.30;;;;;;;;;;5187808;28;20030;-80
2023/01/24 09:24:48;;;;;;;17.50;13.40;;;;;;;;;;5175177;28;20023;-78
2023/01/24 09:27:19;;;;;;;16.33;12.70;;;;;;;;;;5176105;28;20019;-78
2023/01/24 09:29:50;;;;;;;18.43;14.40;;;;;;;;;;5175982;28;20026;-77
2023/01/24 09:32:22;;;;;;;17.20;13.27;;;;;;;;;;5175654;28;20120;-77
2023/01/24 09:34:53;;;;;;;18.97;14.43;;;;;;;;;;5176030;28;20023;-77
2023/01/24 09:37:24;;;;;;;16.98;12.57;;;;;;;;;;5175593;28;20041;-78
2023/01/24 09:39:57;;;;;;;16.80;12.48;;;;;;;;;;5175266;28;20072;-79
2023/01/24 09:42:40;;;;;;;19.88;14.13;;;;;;;;;;5175741;28;20105;-80
2023/01/24 09:45:11;;;;;;;18.40;13.77;;;;;;;;;;5174154;28;20055;-79
2023/01/24 09:47:48;;;;;;;16.38;13.10;;;;;;;;;;5184424;28;20130;-79
2023/01/24 09:50:38;;;;;;;18.00;14.27;;;;;;;;;;5193807;28;20505;-80
2023/01/24 09:53:16;;;;;;;19.88;13.93;;;;;;;;;;5175390;28;20482;-80
2023/01/24 09:55:47;;;;;;;16.65;12.55;;;;;;;;;;5193402;28;20113;-80
2023/01/24 09:58:26;;;;;;;16.00;12.93;;;;;;;;;;5199046;28;20452;-79
2023/01/24 10:01:01;;;;;;;16.85;12.38;;;;;;;;;;5193724;28;20023;-79
2023/01/24 10:03:33;;;;;;;17.43;12.97;;;;;;;;;;5174254;28;20085;-78
2023/01/24 10:06:12;;;;;;;14.47;11.33;;;;;;;;;;5173562;28;20058;-80
2023/01/24 10:08:43;;;;;;;;;;;;;;;;;;5173628;28;20517;-79
2023/01/24 10:11:43;;;;;;;16.35;12.07;;;;;;;;;;5175054;28;19997;-78
2023/01/24 10:14:38;;;;;;;16.27;12.43;;;;;;;;;;5173297;28;20262;-77
2023/01/24 10:17:20;;;;;;;15.55;11.10;;;;;;;;;;5169576;28;20038;-80
2023/01/24 10:20:05;;;;;;;14.52;11.15;;;;;;;;;;5172929;28;20035;-79
2023/01/24 10:22:39;;;;;;;13.63;10.50;;;;;;;;;;5197231;28;20065;-78
2023/01/24 10:25:20;;;;;;;14.52;11.48;;;;;;;;;;5197701;28;20497;-78
2023/01/24 10:27:54;;;;;;;15.20;11.35;;;;;;;;;;5197027;28;20023;-80
2023/01/24 10:30:28;;;;;;;14.02;11.15;;;;;;;;;;5197826;28;20022;-78
2023/01/24 10:33:02;;;;;;;14.00;10.77;;;;;;;;;;5197420;28;20022;-79
2023/01/24 10:35:44;;;;;;;11.75;9.88;;;;;;;;;;5174899;28;20023;-79
2023/01/24 10:38:17;;;;;;;14.40;10.50;;;;;;;;;;5177247;28;20046;-80
2023/01/24 10:40:50;;;;;;;14.57;11.30;;;;;;;;;;5177541;28;20041;-79
2023/01/24 10:43:26;;;;;;;12.60;10.03;;;;;;;;;;5186917;28;20038;-81
2023/01/24 10:45:57;;;;;;;13.63;9.95;;;;;;;;;;5198077;28;20469;-80
2023/01/24 10:48:34;;;;;;;12.66;10.26;;;;;;;;;;5196613;28;20035;-80
2023/01/24 10:51:11;;;;;;;13.35;10.27;;;;;;;;;;5197951;28;20022;-81
2023/01/24 10:53:43;;;;;;;11.20;9.18;;;;;;;;;;5197097;28;20042;-81
2023/01/24 10:56:16;;;;;;;13.18;10.55;;;;;;;;;;5196950;28;20027;-79
2023/01/24 10:58:56;;;;;;;11.95;9.32;;;;;;;;;;5197355;28;20600;-80
2023/01/24 11:01:35;;;;;;;13.65;9.85;;;;;;;;;;5177029;28;20109;-79
2023/01/24 11:04:20;;;;;;;13.00;10.27;;;;;;;;;;5176523;28;20416;-80
2023/01/24 11:06:52;;;;;;;12.98;10.15;;;;;;;;;;5176750;28;20023;-81
2023/01/24 11:09:30;;;;;;;12.32;9.95;;;;;;;;;;5177378;28;20021;-82
2023/01/24 11:12:02;;;;;;;12.35;9.60;;;;;;;;;;5176589;28;20088;-81
2023/01/24 11:14:37;;;;;;;12.82;10.20;;;;;;;;;;5176940;28;20425;-80
2023/01/24 11:17:27;;;;;;;10.90;9.25;;;;;;;;;;5175954;28;20114;-80
2023/01/24 11:20:01;;;;;;;10.38;8.32;;;;;;;;;;5177286;28;20023;-80
2023/01/24 11:22:36;;;;;;;13.50;10.10;;;;;;;;;;5176713;28;20049;-79
2023/01/24 11:25:14;;;;;;;12.68;10.05;;;;;;;;;;5176501;28;20023;-79
2023/01/24 11:27:46;;;;;;;12.98;10.32;;;;;;;;;;5176617;28;20023;-80
2023/01/24 11:30:19;;;;;;;13.15;8.63;;;;;;;;;;5177183;28;20045;-80
2023/01/24 11:33:09;;;;;;;11.70;9.55;;;;;;;;;;5176363;28;20425;-80
2023/01/24 11:35:44;;;;;;;12.03;10.00;;;;;;;;;;5176887;28;20521;-80
2023/01/24 11:38:15;;;;;;;13.65;9.77;;;;;;;;;;5176494;28;20830;-80
2023/01/24 11:40:58;;;;;;;11.33;9.20;;;;;;;;;;5177218;28;20034;-81
2023/01/24 11:43:36;;;;;;;13.60;10.00;;;;;;;;;;5176238;28;20031;-79
2023/01/24 11:46:20;;;;;;;11.87;9.93;;;;;;;;;;5175697;28;20105;-81
2023/01/24 11:49:03;;;;;;;12.38;9.02;;;;;;;;;;5177204;28;20014;-81
2023/01/24 11:51:37;;;;;;;12.93;10.02;;;;;;;;;;5176429;28;20105;-80
2023/01/24 11:54:14;;;;;;;12.70;8.70;;;;;;;;;;5175954;28;20050;-81
2023/01/24 11:56:51;;;;;;;12.02;9.30;;;;;;;;;;5176550;28;20026;-79
2023/01/24 11:59:25;;;;;;;12.32;9.77;;;;;;;;;;5175344;28;20148;-81
2023/01/24 12:01:57;;;;;;;10.90;8.93;;;;;;;;;;5176221;28;20066;-79
2023/01/24 12:04:28;;;;;;;13.97;9.63;;;;;;;;;;5176096;28;20395;-80
2023/01/24 12:06:59;;;;;;;11.24;8.36;;;;;;;;;;5175702;28;20027;-81
2023/01/24 12:09:34;;;;;;;12.93;9.15;;;;;;;;;;5177269;28;20073;-81
2023/01/24 12:12:14;;;;;;;11.80;9.20;;;;;;;;;;5177292;28;20015;-80
2023/01/24 12:15:04;;;;;;;11.98;8.75;;;;;;;;;;5176349;28;20026;-80
2023/01/24 12:17:47;;;;;;;14.00;9.00;;;;;;;;;;5175864;28;20466;-80
2023/01/24 12:20:53;;;;;;;12.37;9.37;;;;;;;;;;5176459;28;20035;-79
2023/01/24 12:23:43;;;;;;;12.40;9.63;;;;;;;;;;5238689;28;20041;-77
2023/01/24 12:26:18;;;;;;;10.05;7.93;;;;;;;;;;5179662;28;20045;-76
2023/01/24 12:28:59;;;;;;;10.68;8.52;;;;;;;;;;5176058;28;20127;-77
2023/01/24 12:31:35;;;;;;;10.50;8.33;;;;;;;;;;5176946;28;20435;-76
2023/01/24 12:34:13;;;;;;;11.73;8.55;;;;;;;;;;5176125;28;20011;-77
2023/01/24 12:36:52;;;;;;;10.45;7.80;;;;;;;;;;5176537;28;20385;-77
2023/01/24 12:39:26;;;;;;;10.57;8.32;;;;;;;;;;5176274;28;20030;-78
2023/01/24 12:42:02;;;;;;;10.98;8.27;;;;;;;;;;5176426;28;20027;-78
2023/01/24 12:44:47;;;;;;;11.70;8.00;;;;;;;;;;5176818;28;20108;-77
2023/01/24 12:47:41;;;;;;;10.63;8.70;;;;;;;;;;5176817;28;20026;-76
2023/01/24 12:50:22;;;;;;;10.57;7.75;;;;;;;;;;5183584;28;20428;-78
2023/01/24 12:53:03;;;;;;;13.80;9.35;;;;;;;;;;5176591;28;20045;-76
2023/01/24 12:55:41;;;;;;;10.68;8.73;;;;;;;;;;5175869;28;20045;-76
2023/01/24 12:58:21;;;;;;;10.80;8.50;;;;;;;;;;5182868;28;20034;-76
2023/01/24 13:00:52;;;;;;;10.85;7.80;;;;;;;;;;5185059;28;20125;-77
2023/01/24 13:03:33;;;;;;;9.85;7.97;;;;;;;;;;5193903;28;20133;-77
2023/01/24 13:06:09;;;;;;;11.27;8.90;;;;;;;;;;5195968;28;20427;-76
2023/01/24 13:08:49;;;;;;;11.82;8.80;;;;;;;;;;5195292;28;20084;-75
2023/01/24 13:11:22;;;;;;;11.18;8.77;;;;;;;;;;5194166;28;20026;-76
2023/01/24 13:14:11;;;;;;;11.55;9.18;;;;;;;;;;5193938;28;20022;-77
2023/01/24 13:16:58;;;;;;;9.80;8.52;;;;;;;;;;5194877;28;20038;-79
2023/01/24 13:19:48;;;;;;;14.43;8.48;;;;;;;;;;5195032;28;20091;-76
2023/01/24 13:22:37;;;;;;;9.68;7.95;;;;;;;;;;5195179;28;20167;-74
2023/01/24 13:25:27;;;;;;;9.25;7.60;;;;;;;;;;5195054;28;20425;-76
2023/01/24 13:28:05;;;;;;;10.02;7.90;;;;;;;;;;5195460;28;20019;-78
2023/01/24 13:30:53;;;;;;;9.20;7.30;;;;;;;;;;5194641;28;20765;-76
2023/01/24 13:33:35;;;;;;;8.23;6.95;;;;;;;;;;5195503;28;20037;-78
2023/01/24 13:36:06;;;;;;;9.55;7.53;;;;;;;;;;5195250;28;20027;-78
2023/01/24 13:38:42;;;;;;;9.98;7.57;;;;;;;;;;5194467;28;20037;-77
2023/01/24 13:41:15;;;;;;;10.65;8.02;;;;;;;;;;5195332;28;20377;-77
2023/01/24 13:43:53;;;;;;;12.48;8.13;;;;;;;;;;5194760;28;20125;-77
2023/01/24 13:46:46;;;;;;;10.50;8.27;;;;;;;;;;5194155;28;20021;-78
2023/01/24 13:49:29;;;;;;;10.57;8.82;;;;;;;;;;5196071;28;20026;-76
2023/01/24 13:52:06;;;;;;;11.75;9.43;;;;;;;;;;5198584;28;20042;-76
2023/01/24 13:54:39;;;;;;;11.68;8.32;;;;;;;;;;5198728;28;20033;-78
2023/01/24 13:57:17;;;;;;;10.60;8.55;;;;;;;;;;5197862;28;20083;-76
2023/01/24 14:00:00;;;;;;;10.75;8.07;;;;;;;;;;5197477;28;20034;-76
2023/01/24 14:02:33;;;;;;;9.60;8.02;;;;;;;;;;5198208;28;20138;-78
2023/01/24 14:05:24;;;;;;;9.50;7.80;;;;;;;;;;5198484;28;20024;-77
2023/01/24 14:07:57;;;;;;;9.70;7.88;;;;;;;;;;5197936;28;20042;-77
2023/01/24 14:10:38;;;;;;;10.00;8.33;;;;;;;;;;5197890;28;20030;-76
2023/01/24 14:13:28;;;;;;;9.95;7.28;;;;;;;;;;5197246;28;20147;-81
2023/01/24 14:16:00;;;;;;;10.60;7.38;;;;;;;;;;5199131;28;20026;-77
2023/01/24 14:18:42;;;;;;;10.10;8.48;;;;;;;;;;5199004;28;20049;-76
2023/01/24 14:21:22;;;;;;;10.30;8.40;;;;;;;;;;5194951;28;20349;-76
2023/01/24 14:23:55;;;;;;;12.48;8.65;;;;;;;;;;5185705;28;20035;-77
2023/01/24 14:26:33;;;;;;;12.35;9.18;;;;;;;;;;5197567;28;20057;-74
2023/01/24 14:29:12;;;;;;;10.93;8.77;;;;;;;;;;5198365;28;20018;-77
2023/01/24 14:31:45;;;;;;;11.60;9.05;;;;;;;;;;5197887;28;20034;-75
2023/01/24 14:34:28;;;;;;;12.35;9.48;;;;;;;;;;5197459;28;20381;-77
2023/01/24 14:37:02;;;;;;;10.20;8.50;;;;;;;;;;5197176;28;20026;-76
2023/01/24 14:39:33;;;;;;;11.40;8.75;;;;;;;;;;5198015;28;20373;-77
2023/01/24 14:42:11;;;;;;;10.60;8.77;;;;;;;;;;5197143;28;20027;-77
2023/01/24 14:44:52;;;;;;;11.38;8.40;;;;;;;;;;5198418;28;20034;-79
2023/01/24 14:47:25;;;;;;;10.85;9.02;;;;;;;;;;5198440;28;20022;-78
2023/01/24 14:49:57;;;;;;;9.25;7.30;;;;;;;;;;5197897;28;20026;-77
2023/01/24 14:52:35;;;;;;;10.48;8.20;;;;;;;;;;5198172;28;20015;-76
2023/01/24 14:55:23;;;;;;;10.83;8.50;;;;;;;;;;5196829;28;20018;-78
2023/01/24 14:57:54;;;;;;;12.93;9.25;;;;;;;;;;5198921;28;20037;-76
2023/01/24 15:00:26;;;;;;;11.40;9.00;;;;;;;;;;5197827;28;20023;-77
2023/01/24 15:02:58;;;;;;;12.95;9.45;;;;;;;;;;5197956;28;20206;-76
2023/01/24 15:05:33;;;;;;;11.65;9.02;;;;;;;;;;5198468;28;20370;-77
2023/01/24 15:08:05;;;;;;;9.95;8.30;;;;;;;;;;5198430;28;20477;-77
2023/01/24 15:10:38;;;;;;;9.80;8.20;;;;;;;;;;5197740;28;20015;-77
2023/01/24 15:13:16;;;;;;;9.43;7.85;;;;;;;;;;5198603;28;20042;-79
2023/01/24 15:15:48;;;;;;;9.30;6.93;;;;;;;;;;5197945;28;20034;-77
2023/01/24 15:18:39;;;;;;;11.38;8.65;;;;;;;;;;5198681;28;20091;-78
2023/01/24 15:21:16;;;;;;;10.75;8.18;;;;;;;;;;5198154;28;20031;-78
2023/01/24 15:23:51;;;;;;;11.73;8.40;;;;;;;;;;5197475;28;20152;-77
2023/01/24 15:26:28;;;;;;;10.65;8.45;;;;;;;;;;5198257;28;20130;-78
2023/01/24 15:29:19;;;;;;;11.70;8.73;;;;;;;;;;5198282;28;20037;-77
2023/01/24 15:31:50;;;;;;;9.00;7.45;;;;;;;;;;5197033;28;20025;-78
2023/01/24 15:34:21;;;;;;;11.25;8.48;;;;;;;;;;5198115;28;20022;-77
2023/01/24 15:36:58;;;;;;;15.68;9.90;;;;;;;;;;5197321;28;20030;-76
2023/01/24 15:39:29;;;;;;;10.30;8.05;;;;;;;;;;5197553;28;20080;-77